Time;durP1;ratioP1;P1;durP2;ratioP2;P2;SDS_P1;SDS_P2;PMS_P1;PMS_P2;Temp;Humidity;BMP_temperature;BMP_pressure;BME280_temperature;BME280_humidity;BME280_pressure;Samples;Min_cycle;Max_cycle;Signal;HPM_P1;HPM_P2
2021/10/22 00:04:00;;;;;;;25.95;3.95;;;;;;;5.15;69.20;99883.84;10344337;28;20046;-62
2021/10/22 00:09:02;;;;;;;15.77;3.10;;;;;;;5.16;69.02;99891.59;10344014;28;20061;-62
2021/10/22 00:14:04;;;;;;;17.27;3.42;;;;;;;5.14;69.20;99900.34;10343290;28;20049;-62
2021/10/22 00:19:06;;;;;;;14.35;3.38;;;;;;;5.17;69.12;99898.47;10344185;28;20148;-62
2021/10/22 00:24:09;;;;;;;18.58;3.53;;;;;;;5.12;69.12;99909.91;10344243;28;20050;-62
2021/10/22 00:29:11;;;;;;;14.55;3.17;;;;;;;5.11;69.02;99906.47;10343509;28;20073;-62
2021/10/22 00:34:13;;;;;;;12.43;3.20;;;;;;;5.10;68.87;99906.53;10343551;28;20049;-62
2021/10/22 00:39:14;;;;;;;15.38;3.30;;;;;;;5.05;68.94;99911.03;10341489;28;20050;-62
2021/10/22 00:44:16;;;;;;;15.00;3.58;;;;;;;5.00;69.23;99903.47;10343311;28;20125;-62
2021/10/22 00:49:21;;;;;;;16.38;3.33;;;;;;;4.92;69.17;99904.63;10342922;28;20056;-62
2021/10/22 00:54:22;;;;;;;16.88;3.30;;;;;;;4.91;68.95;99902.94;10342933;28;20042;-62
2021/10/22 00:59:25;;;;;;;16.55;3.00;;;;;;;4.87;69.26;99896.19;10342929;28;20060;-62
2021/10/22 01:04:27;;;;;;;13.18;3.42;;;;;;;4.86;68.96;99905.69;10343071;28;20052;-62
2021/10/22 01:09:29;;;;;;;12.00;3.00;;;;;;;4.84;69.38;99894.53;10342998;28;20057;-62
2021/10/22 01:14:31;;;;;;;18.08;3.40;;;;;;;4.80;69.32;99897.31;10341997;28;20132;-62
2021/10/22 01:19:32;;;;;;;16.55;3.60;;;;;;;4.67;69.85;99900.34;10340687;28;20458;-62
2021/10/22 01:24:34;;;;;;;13.43;3.33;;;;;;;4.69;69.56;99903.75;10346620;28;20293;-62
2021/10/22 01:29:36;;;;;;;15.50;3.17;;;;;;;4.72;69.51;99898.44;10350954;28;20049;-62
2021/10/22 01:34:37;;;;;;;14.82;2.90;;;;;;;4.67;69.64;99896.91;10350159;28;20075;-62
2021/10/22 01:39:39;;;;;;;17.38;3.30;;;;;;;4.72;69.30;99901.03;10349275;28;20060;-62
2021/10/22 01:44:41;;;;;;;14.30;3.50;;;;;;;4.73;69.26;99891.50;10349819;28;20460;-63
2021/10/22 01:49:43;;;;;;;16.63;3.63;;;;;;;4.69;69.40;99898.56;10348822;28;20050;-63
2021/10/22 01:54:46;;;;;;;17.33;3.58;;;;;;;4.66;69.53;99898.66;10350354;28;20049;-63
2021/10/22 01:59:50;;;;;;;13.48;3.20;;;;;;;4.66;69.51;99898.66;10347756;28;20054;-62
2021/10/22 02:04:51;;;;;;;16.42;3.15;;;;;;;4.66;69.29;99906.44;10354628;28;20527;-62
2021/10/22 02:09:53;;;;;;;18.45;3.70;;;;;;;4.67;69.37;99910.72;10355661;28;20498;-62
2021/10/22 02:14:55;;;;;;;14.10;3.70;;;;;;;4.60;69.70;99913.56;10354595;28;20064;-62
2021/10/22 02:19:56;;;;;;;20.58;3.75;;;;;;;4.62;69.55;99914.34;10355746;28;20410;-62
2021/10/22 02:24:58;;;;;;;14.80;3.15;;;;;;;4.59;69.54;99910.16;10356655;28;20059;-62
2021/10/22 02:30:00;;;;;;;14.82;3.13;;;;;;;4.64;69.57;99905.63;10354002;28;20053;-62
2021/10/22 02:35:03;;;;;;;19.92;3.30;;;;;;;4.62;69.30;99915.22;10354543;28;20076;-63
2021/10/22 02:40:05;;;;;;;16.95;3.63;;;;;;;4.56;69.49;99922.34;10354488;28;20216;-62
2021/10/22 02:45:07;;;;;;;18.92;3.22;;;;;;;4.51;69.51;99922.53;10355087;28;20140;-63
2021/10/22 02:50:09;;;;;;;14.82;3.95;;;;;;;4.53;69.51;99925.91;10354643;28;20052;-62
2021/10/22 02:55:11;;;;;;;16.58;3.17;;;;;;;4.56;69.37;99930.97;10354484;28;20056;-62
2021/10/22 03:00:13;;;;;;;12.60;3.30;;;;;;;4.51;69.36;99919.94;10354361;28;20132;-62
2021/10/22 03:05:15;;;;;;;13.75;3.30;;;;;;;4.51;69.44;99921.69;10349859;28;20046;-62
2021/10/22 03:10:17;;;;;;;13.73;3.10;;;;;;;4.51;69.36;99927.72;10348971;28;20049;-62
2021/10/22 03:15:19;;;;;;;14.25;3.03;;;;;;;4.50;69.38;99931.19;10346169;28;20532;-62
2021/10/22 03:20:21;;;;;;;18.42;3.83;;;;;;;4.49;69.29;99926.06;10347611;28;20045;-62
2021/10/22 03:25:22;;;;;;;17.35;3.60;;;;;;;4.49;69.41;99926.91;10346178;28;20568;-62
2021/10/22 03:30:24;;;;;;;20.15;3.55;;;;;;;4.46;69.32;99921.84;10346730;28;20073;-63
2021/10/22 03:35:26;;;;;;;17.58;3.90;;;;;;;4.48;69.37;99927.81;10346458;28;20056;-63
2021/10/22 03:40:28;;;;;;;14.80;3.55;;;;;;;4.48;69.16;99927.81;10346186;28;20046;-63
2021/10/22 03:45:29;;;;;;;19.98;3.92;;;;;;;4.39;69.26;99930.69;10345635;28;20129;-62
2021/10/22 03:50:31;;;;;;;15.50;3.70;;;;;;;4.31;69.57;99924.13;10344814;28;20042;-63
2021/10/22 03:55:33;;;;;;;14.18;3.47;;;;;;;4.36;69.34;99929.97;10345224;28;20393;-62
2021/10/22 04:00:35;;;;;;;16.10;3.90;;;;;;;4.33;69.35;99938.69;10344592;28;20041;-62
2021/10/22 04:05:37;;;;;;;15.68;3.42;;;;;;;4.29;69.45;99934.50;10344944;28;20143;-62
2021/10/22 04:10:41;;;;;;;18.10;3.65;;;;;;;4.28;69.35;99943.19;10345209;28;20140;-62
2021/10/22 04:15:43;;;;;;;22.48;4.55;;;;;;;4.28;69.33;99948.34;10343567;28;20072;-62
2021/10/22 04:20:45;;;;;;;15.65;3.85;;;;;;;4.19;69.47;99933.13;10345281;28;20081;-63
2021/10/22 04:25:49;;;;;;;13.20;3.78;;;;;;;4.16;69.53;99942.75;10344650;28;20052;-63
2021/10/22 04:30:50;;;;;;;17.13;4.00;;;;;;;4.18;69.27;99951.31;10344557;28;20465;-63
2021/10/22 04:35:52;;;;;;;15.55;3.72;;;;;;;4.12;69.46;99951.50;10344272;28;20058;-62
2021/10/22 04:40:55;;;;;;;13.55;3.72;;;;;;;4.14;69.32;99944.53;10344989;28;20055;-63
2021/10/22 04:45:57;;;;;;;12.70;3.95;;;;;;;4.09;69.33;99942.09;10343166;28;20045;-63
2021/10/22 04:50:59;;;;;;;19.88;4.25;;;;;;;4.09;69.34;99939.50;10344219;28;20058;-62
2021/10/22 04:56:02;;;;;;;15.63;4.20;;;;;;;4.09;69.25;99951.63;10341681;28;20053;-63
2021/10/22 05:01:04;;;;;;;20.35;4.50;;;;;;;3.95;69.36;99949.47;10350549;28;20042;-63
2021/10/22 05:06:05;;;;;;;19.10;5.00;;;;;;;3.82;69.79;99946.41;10352368;28;20160;-63
2021/10/22 05:11:07;;;;;;;13.63;4.38;;;;;;;3.77;70.00;99934.50;10352271;28;20052;-63
2021/10/22 05:16:09;;;;;;;20.77;5.93;;;;;;;3.75;69.86;99937.16;10351484;28;20232;-62
2021/10/22 05:21:11;;;;;;;17.85;5.70;;;;;;;3.72;69.97;99944.19;10351455;28;20077;-63
2021/10/22 05:26:12;;;;;;;18.30;5.95;;;;;;;3.72;69.87;99939.00;10351314;28;20042;-63
2021/10/22 05:31:14;;;;;;;17.17;5.00;;;;;;;3.74;69.80;99939.81;10351576;28;20050;-63
2021/10/22 05:36:16;;;;;;;16.88;4.95;;;;;;;3.75;69.93;99946.66;10350759;28;20513;-63
2021/10/22 05:41:17;;;;;;;17.73;5.57;;;;;;;3.72;69.82;99946.75;10350475;28;20050;-62
2021/10/22 05:46:19;;;;;;;20.98;5.80;;;;;;;3.65;69.94;99946.09;10350739;28;20427;-63
2021/10/22 05:51:22;;;;;;;20.83;6.57;;;;;;;3.58;70.05;99957.53;10350353;28;20052;-62
2021/10/22 05:56:24;;;;;;;16.20;5.40;;;;;;;3.53;70.29;99966.31;10350394;28;20053;-62
2021/10/22 06:01:25;;;;;;;16.85;5.75;;;;;;;3.52;70.38;99957.72;10349113;28;21552;-62
2021/10/22 06:06:29;;;;;;;16.65;5.80;;;;;;;3.55;70.31;99960.22;10349953;28;20438;-63
2021/10/22 06:11:31;;;;;;;20.08;6.90;;;;;;;3.52;70.19;99969.78;10350356;28;20046;-62
2021/10/22 06:16:33;;;;;;;18.13;6.30;;;;;;;3.62;70.02;99979.81;10345805;28;20064;-62
2021/10/22 06:26:47;;;;;;;17.77;6.03;;;;;;;3.70;69.82;99988.16;10349116;28;20137;-63
2021/10/22 06:31:49;;;;;;;19.65;6.05;;;;;;;3.75;69.77;99993.22;10348584;28;20046;-62
2021/10/22 06:36:51;;;;;;;19.38;6.40;;;;;;;3.77;69.97;100006.94;10348739;28;20089;-62
2021/10/22 06:41:53;;;;;;;14.70;5.82;;;;;;;3.88;69.58;100003.16;10348227;28;20137;-62
2021/10/22 06:46:55;;;;;;;19.63;6.22;;;;;;;3.97;69.31;100012.38;10348307;28;20871;-62
2021/10/22 06:51:57;;;;;;;18.23;5.47;;;;;;;4.01;69.41;100020.88;10347491;28;20550;-62
2021/10/22 06:56:59;;;;;;;17.00;5.32;;;;;;;4.04;69.22;100019.06;10346940;28;20042;-62
2021/10/22 07:02:00;;;;;;;18.63;5.70;;;;;;;4.20;68.85;100028.00;10347165;28;20057;-63
2021/10/22 07:07:15;;;;;;;19.70;5.18;;;;;;;4.32;68.55;100027.63;10347186;28;20422;-62
2021/10/22 07:12:17;;;;;;;18.10;6.20;;;;;;;4.35;68.76;100026.69;10347357;28;20049;-62
2021/10/22 07:17:18;;;;;;;14.45;4.97;;;;;;;4.51;68.28;100017.50;10346666;28;20061;-63
2021/10/22 07:22:29;;;;;;;19.88;4.50;;;;;;;4.67;68.00;100016.94;10346914;28;20058;-63
2021/10/22 07:27:31;;;;;;;17.80;4.95;;;;;;;4.78;67.68;100010.53;10347075;28;20553;-63
2021/10/22 07:32:33;;;;;;;19.23;5.18;;;;;;;5.00;67.12;99994.16;10347528;28;20219;-63
2021/10/22 07:37:35;;;;;;;12.30;4.60;;;;;;;5.14;67.28;99993.66;10346551;28;20060;-63
2021/10/22 07:42:37;;;;;;;13.15;4.15;;;;;;;5.20;66.57;99989.09;10340011;28;20048;-63
2021/10/22 07:47:39;;;;;;;14.18;4.32;;;;;;;5.14;66.39;99980.69;10340426;28;20062;-63
2021/10/22 07:52:41;;;;;;;12.95;4.32;;;;;;;5.36;66.33;99986.78;10344614;28;20522;-63
2021/10/22 07:57:42;;;;;;;11.95;4.07;;;;;;;5.71;65.48;99970.69;10344729;28;20512;-63
2021/10/22 08:02:44;;;;;;;18.83;4.78;;;;;;;6.00;64.83;99965.19;10344216;28;20060;-63
2021/10/22 08:07:46;;;;;;;15.98;4.28;;;;;;;6.25;64.05;99971.09;10345594;28;20100;-63
2021/10/22 08:12:48;;;;;;;12.85;3.90;;;;;;;6.49;63.12;99977.00;10344850;28;20450;-63
2021/10/22 08:18:08;;;;;;;13.07;3.90;;;;;;;6.78;62.39;99979.22;10344037;28;20089;-63
2021/10/22 08:23:10;;;;;;;12.88;3.53;;;;;;;6.89;61.05;99996.94;10359139;28;20049;-62
2021/10/22 08:28:11;;;;;;;15.48;3.88;;;;;;;7.03;61.87;99991.97;10344389;28;20054;-63
2021/10/22 08:33:14;;;;;;;9.43;3.40;;;;;;;7.20;60.98;100002.50;10343245;28;20049;-63
2021/10/22 08:38:16;;;;;;;15.27;3.80;;;;;;;7.40;60.28;100006.78;10342780;28;20046;-63
2021/10/22 08:43:18;;;;;;;10.82;3.40;;;;;;;7.68;59.94;100002.84;10342906;28;20069;-63
2021/10/22 08:48:20;;;;;;;11.40;3.10;;;;;;;7.76;59.40;100002.47;10336076;28;20045;-61
2021/10/22 08:53:23;;;;;;;11.15;3.17;;;;;;;7.68;57.90;100001.97;10342770;28;20184;-62
2021/10/22 08:58:26;;;;;;;12.65;3.08;;;;;;;7.89;59.15;99998.38;10341747;28;20058;-62
2021/10/22 09:03:37;;;;;;;11.95;2.90;;;;;;;7.89;57.54;100006.19;10343129;28;20046;-62
2021/10/22 09:08:44;;;;;;;11.90;3.55;;;;;;;7.89;58.62;100011.41;10344062;28;20467;-62
2021/10/22 09:14:03;;;;;;;8.90;2.83;;;;;;;7.92;57.41;100013.84;10344125;28;20056;-62
2021/10/22 09:19:04;;;;;;;8.30;2.45;;;;;;;8.04;58.24;100011.50;10344425;28;20773;-62
2021/10/22 09:24:20;;;;;;;8.98;2.88;;;;;;;8.13;57.14;100012.00;10342693;28;20574;-62
2021/10/22 09:29:27;;;;;;;13.10;3.03;;;;;;;8.19;57.60;100019.53;10343754;28;20470;-63
2021/10/22 09:34:33;;;;;;;11.57;2.47;;;;;;;8.29;57.01;100024.22;10344081;28;20495;-62
2021/10/22 09:39:36;;;;;;;9.75;2.30;;;;;;;8.37;56.76;100029.91;10344054;28;20483;-62
2021/10/22 09:44:44;;;;;;;14.70;2.75;;;;;;;8.48;56.43;100029.38;10346671;28;20066;-62
2021/10/22 09:49:51;;;;;;;11.50;2.25;;;;;;;8.40;56.79;100036.72;10350527;28;20580;-62
2021/10/22 09:55:14;;;;;;;12.77;2.85;;;;;;;8.39;56.18;100035.03;10349818;28;20046;-62
2021/10/22 10:00:21;;;;;;;8.23;2.70;;;;;;;8.52;55.40;100033.50;10350747;28;20049;-62
2021/10/22 10:05:24;;;;;;;8.40;2.45;;;;;;;8.61;56.24;100025.22;10350048;28;20410;-62
2021/10/22 10:10:26;;;;;;;9.20;2.15;;;;;;;8.78;55.76;100033.91;10350300;28;20063;-62
2021/10/22 10:15:28;;;;;;;16.92;2.60;;;;;;;9.03;55.47;100043.06;10349839;28;20054;-62
2021/10/22 10:20:32;;;;;;;7.15;2.15;;;;;;;9.42;54.73;100038.38;10348449;28;20064;-62
2021/10/22 10:25:34;;;;;;;10.30;2.60;;;;;;;9.64;53.66;100036.31;10349026;28;20458;-62
2021/10/22 10:30:39;;;;;;;9.23;2.33;;;;;;;9.60;52.98;100051.28;10349137;28;20392;-62
2021/10/22 10:35:43;;;;;;;9.20;2.88;;;;;;;9.56;53.18;100034.06;10349909;28;20052;-62
2021/10/22 10:40:44;;;;;;;8.77;2.35;;;;;;;9.60;53.29;100030.41;10349328;28;20231;-62
2021/10/22 10:45:47;;;;;;;9.07;2.75;;;;;;;9.75;53.23;100038.38;10349133;28;20050;-62
2021/10/22 10:50:54;;;;;;;11.52;2.30;;;;;;;9.52;52.78;100043.00;10348243;28;20064;-62
2021/10/22 10:55:55;;;;;;;9.48;2.38;;;;;;;9.46;53.73;100038.09;10346236;28;20052;-62
2021/10/22 11:01:03;;;;;;;9.55;2.15;;;;;;;9.64;53.30;100026.69;10348685;28;20487;-62
2021/10/22 11:06:05;;;;;;;8.10;2.47;;;;;;;9.64;53.30;100021.47;10348055;28;20052;-62
2021/10/22 11:11:16;;;;;;;6.32;2.17;;;;;;;9.90;52.21;100017.47;10348292;28;21041;-62
2021/10/22 11:16:25;;;;;;;8.00;2.47;;;;;;;10.10;51.78;100006.72;10347775;28;20423;-62
2021/10/22 11:21:28;;;;;;;7.63;2.22;;;;;;;10.48;52.01;100005.38;10347628;28;20046;-62
2021/10/22 11:26:31;;;;;;;8.30;2.70;;;;;;;10.55;51.64;100003.25;10347830;28;20137;-62
2021/10/22 11:31:47;;;;;;;7.22;2.10;;;;;;;10.53;51.23;99999.88;10347283;28;20141;-62
2021/10/22 11:36:55;;;;;;;8.80;2.33;;;;;;;10.51;51.04;100004.34;10347222;28;20438;-63
2021/10/22 11:42:04;;;;;;;8.45;2.30;;;;;;;10.60;50.89;99992.53;10346841;28;20454;-63
2021/10/22 11:47:07;;;;;;;9.52;2.42;;;;;;;10.78;51.41;99987.06;10346715;28;20477;-63
2021/10/22 11:52:13;;;;;;;7.72;2.08;;;;;;;11.03;50.09;99997.72;10346735;28;20560;-63
2021/10/22 11:57:19;;;;;;;9.55;2.10;;;;;;;11.01;50.87;99990.91;10346391;28;20391;-63
2021/10/22 12:02:23;;;;;;;5.40;1.75;;;;;;;11.10;50.62;99993.81;10346803;28;20140;-63
2021/10/22 12:07:34;;;;;;;7.53;2.00;;;;;;;11.25;49.81;99995.50;10345737;28;20409;-63
2021/10/22 12:12:46;;;;;;;5.72;1.90;;;;;;;11.14;50.04;100003.19;10345680;28;20382;-63
2021/10/22 12:17:53;;;;;;;6.90;1.90;;;;;;;11.18;50.01;99999.44;10345840;28;20140;-63
2021/10/22 12:22:58;;;;;;;7.97;2.13;;;;;;;11.43;49.75;99992.69;10345502;28;20327;-63
2021/10/22 12:28:12;;;;;;;5.32;1.52;;;;;;;11.83;48.92;99997.09;10345311;28;20426;-63
2021/10/22 12:33:14;;;;;;;6.78;1.90;;;;;;;11.63;48.71;99998.38;10344985;28;20605;-62
2021/10/22 12:38:18;;;;;;;8.05;1.73;;;;;;;11.99;48.06;99990.78;10345508;28;20060;-63
2021/10/22 12:43:25;;;;;;;7.47;1.90;;;;;;;12.07;48.30;99998.97;10345323;28;20049;-63
2021/10/22 12:48:35;;;;;;;5.55;1.65;;;;;;;11.91;47.70;99998.28;10345121;28;20049;-63
2021/10/22 12:53:41;;;;;;;8.60;2.00;;;;;;;11.87;47.92;99996.81;10344749;28;20487;-63
2021/10/22 12:59:04;;;;;;;5.90;1.80;;;;;;;11.83;47.60;99991.84;10344501;28;20053;-63
2021/10/22 13:04:14;;;;;;;6.65;1.77;;;;;;;11.66;48.30;100011.25;10344373;28;20053;-63
2021/10/22 13:25:08;;;;;;;4.43;1.60;;;;;;;11.76;48.64;99994.03;10351980;28;20224;-63
2021/10/22 13:30:27;;;;;;;6.10;1.90;;;;;;;11.99;48.17;99997.78;10352099;28;20164;-63
2021/10/22 13:35:29;;;;;;;8.50;2.00;;;;;;;12.05;47.89;100007.88;10351464;28;20060;-63
2021/10/22 13:40:30;;;;;;;8.00;1.95;;;;;;;12.02;47.33;100011.56;10351426;28;20418;-63
2021/10/22 13:45:33;;;;;;;4.72;1.48;;;;;;;11.84;46.29;100004.03;10351922;28;20051;-63
2021/10/22 13:50:35;;;;;;;6.15;1.27;;;;;;;11.69;45.65;100012.84;10351486;28;20046;-63
2021/10/22 13:55:37;;;;;;;4.45;1.30;;;;;;;11.72;45.70;100008.25;10350450;28;20112;-63
2021/10/22 14:00:39;;;;;;;5.75;1.50;;;;;;;11.87;45.73;99993.34;10350852;28;20060;-62
2021/10/22 14:05:41;;;;;;;6.20;1.40;;;;;;;11.79;45.54;100014.78;10349898;28;20410;-63
2021/10/22 14:10:47;;;;;;;5.90;1.40;;;;;;;11.62;45.64;100012.38;10350648;28;20204;-64
2021/10/22 14:31:42;;;;;;;4.50;1.60;;;;;;;11.09;46.31;100034.00;10347963;28;20050;-62
2021/10/22 14:36:44;;;;;;;7.43;1.70;;;;;;;11.02;46.14;100037.91;10349330;28;20052;-63
2021/10/22 14:41:46;;;;;;;5.95;1.52;;;;;;;10.97;46.56;100039.13;10349343;28;20738;-63
2021/10/22 14:47:11;;;;;;;6.57;1.60;;;;;;;10.99;46.83;100048.53;10348140;28;20129;-63
2021/10/22 14:52:39;;;;;;;5.10;1.55;;;;;;;10.94;46.84;100047.16;10348892;28;20049;-63
2021/10/22 14:57:40;;;;;;;3.38;1.48;;;;;;;10.73;46.88;100054.47;10348428;28;20060;-63
2021/10/22 15:02:42;;;;;;;6.40;1.40;;;;;;;10.63;47.13;100055.94;10349125;28;20083;-63
2021/10/22 15:07:44;;;;;;;6.53;1.55;;;;;;;10.67;47.25;100059.22;10348396;28;20049;-62
2021/10/22 15:12:46;;;;;;;6.28;1.38;;;;;;;10.64;46.55;100070.72;10347927;28;20129;-63
2021/10/22 15:17:48;;;;;;;5.82;1.45;;;;;;;10.50;46.31;100068.06;10347991;28;20239;-63
2021/10/22 15:22:50;;;;;;;5.40;1.63;;;;;;;10.59;46.71;100071.91;10348017;28;20054;-63
2021/10/22 15:27:51;;;;;;;4.72;1.50;;;;;;;10.56;46.74;100069.47;10347175;28;20827;-63
2021/10/22 15:32:53;;;;;;;6.47;1.58;;;;;;;10.52;46.99;100081.03;10347413;28;20156;-63
2021/10/22 15:37:55;;;;;;;7.63;1.83;;;;;;;10.45;47.17;100083.16;10346532;28;20064;-62
2021/10/22 15:42:57;;;;;;;3.25;1.55;;;;;;;10.46;47.22;100087.47;10346336;28;20049;-62
2021/10/22 15:47:58;;;;;;;16.38;2.35;;;;;;;10.43;47.59;100079.78;10346653;28;20054;-63
2021/10/22 15:53:00;;;;;;;5.32;1.50;;;;;;;10.33;47.19;100073.38;10346280;28;20064;-63
2021/10/22 15:58:02;;;;;;;5.68;1.40;;;;;;;10.41;47.41;100087.72;10344792;28;20061;-63
2021/10/22 16:03:03;;;;;;;4.03;1.30;;;;;;;10.37;47.51;100083.59;10346293;28;20532;-63
2021/10/22 16:13:17;;;;;;;4.15;1.50;;;;;;;10.36;48.13;100109.81;10345695;28;20050;-62
2021/10/22 16:18:18;;;;;;;5.47;1.77;;;;;;;10.25;48.18;100125.25;10345702;28;20072;-63
2021/10/22 16:23:20;;;;;;;5.53;1.77;;;;;;;10.31;48.42;100132.75;10345404;28;20525;-63
2021/10/22 16:28:22;;;;;;;5.78;1.60;;;;;;;10.35;48.70;100145.59;10345272;28;20056;-63
2021/10/22 16:38:31;;;;;;;5.28;1.80;;;;;;;10.34;50.13;100167.41;10345114;28;20445;-62
2021/10/22 16:43:35;;;;;;;8.05;1.80;;;;;;;10.20;50.59;100166.47;10344488;28;20057;-63
2021/10/22 16:48:42;;;;;;;9.77;2.30;;;;;;;10.20;51.19;100163.84;10344975;28;20057;-63
2021/10/22 16:53:48;;;;;;;5.13;1.88;;;;;;;10.20;51.46;100169.94;10343481;28;20052;-63
2021/10/22 16:58:50;;;;;;;7.40;1.90;;;;;;;10.15;51.26;100173.72;10344613;28;20060;-63
2021/10/22 17:03:52;;;;;;;6.65;2.17;;;;;;;10.11;51.51;100177.44;10343467;28;20056;-63
2021/10/22 17:08:54;;;;;;;9.02;2.17;;;;;;;10.05;52.04;100188.22;10344571;28;20045;-63
2021/10/22 17:13:55;;;;;;;8.32;2.03;;;;;;;10.03;52.41;100184.84;10343908;28;20050;-62
2021/10/22 17:18:59;;;;;;;5.43;1.67;;;;;;;9.95;52.93;100192.25;10344300;28;20084;-63
2021/10/22 17:24:01;;;;;;;6.53;1.75;;;;;;;9.92;53.18;100202.84;10344310;28;20050;-63
2021/10/22 17:29:06;;;;;;;6.70;1.85;;;;;;;9.91;53.25;100212.44;10344155;28;20542;-63
2021/10/22 17:34:07;;;;;;;6.57;1.90;;;;;;;9.84;53.41;100223.31;10343516;28;20504;-63
2021/10/22 17:39:09;;;;;;;11.43;2.00;;;;;;;9.72;53.73;100227.41;10344205;28;20050;-63
2021/10/22 17:44:11;;;;;;;5.75;2.00;;;;;;;9.77;53.78;100240.22;10344002;28;20434;-63
2021/10/22 17:49:12;;;;;;;6.03;1.80;;;;;;;9.85;53.66;100244.13;10343783;28;20054;-63
2021/10/22 17:54:15;;;;;;;6.07;2.33;;;;;;;9.88;53.65;100254.41;10343635;28;20092;-62
2021/10/22 17:59:17;;;;;;;7.25;1.80;;;;;;;9.96;53.64;100259.25;10343035;28;20064;-63
2021/10/22 18:04:19;;;;;;;8.18;2.05;;;;;;;9.87;53.69;100273.63;10343609;28;20050;-62
2021/10/22 18:09:21;;;;;;;8.13;1.90;;;;;;;9.76;54.11;100269.88;10350766;28;20050;-62
2021/10/22 18:14:25;;;;;;;9.45;2.03;;;;;;;9.65;54.55;100273.84;10350005;28;20050;-63
2021/10/22 18:19:28;;;;;;;7.80;2.35;;;;;;;9.68;54.26;100275.50;10349608;28;20053;-63
2021/10/22 18:24:29;;;;;;;5.85;2.00;;;;;;;9.65;54.46;100271.22;10348710;28;20064;-63
2021/10/22 18:29:40;;;;;;;6.55;1.90;;;;;;;9.71;54.37;100277.13;10349712;28;20487;-63
2021/10/22 18:34:42;;;;;;;;;;;;;;;9.36;55.15;100271.84;10350209;28;20433;-63
2021/10/22 18:39:44;;;;;;;6.40;1.90;;;;;;;9.63;54.66;100275.69;10349532;28;19925;-62
2021/10/22 18:44:45;;;;;;;7.70;2.05;;;;;;;9.68;54.64;100279.88;10347665;28;20469;-62
2021/10/22 18:49:55;;;;;;;8.02;2.05;;;;;;;9.61;54.68;100290.59;10349202;28;20041;-63
2021/10/22 18:54:57;;;;;;;9.50;2.30;;;;;;;9.57;54.82;100302.09;10348418;28;20054;-62
2021/10/22 19:00:00;;;;;;;10.55;2.38;;;;;;;9.49;55.53;100312.09;10348347;28;20064;-63
2021/10/22 19:05:12;;;;;;;10.48;2.20;;;;;;;9.53;55.67;100321.47;10348219;28;20204;-63
2021/10/22 19:10:13;;;;;;;8.82;2.20;;;;;;;9.57;56.04;100330.84;10348032;28;20422;-62
2021/10/22 19:15:16;;;;;;;6.93;2.00;;;;;;;9.51;56.54;100330.28;10346978;28;20064;-62
2021/10/22 19:20:19;;;;;;;5.88;1.95;;;;;;;9.43;57.08;100332.41;10347178;28;20060;-62
2021/10/22 19:25:21;;;;;;;7.18;1.98;;;;;;;9.45;57.30;100352.31;10347897;28;20526;-62
2021/10/22 19:30:23;;;;;;;10.23;1.90;;;;;;;9.39;57.58;100362.22;10347645;28;20415;-62
2021/10/22 19:35:25;;;;;;;6.95;2.00;;;;;;;9.51;57.59;100385.97;10346815;28;20072;-62
2021/10/22 19:40:27;;;;;;;5.55;1.80;;;;;;;9.46;57.82;100398.38;10347061;28;20066;-62
2021/10/22 19:45:29;;;;;;;8.30;2.20;;;;;;;9.37;58.86;100409.28;10346808;28;20054;-62
2021/10/22 19:50:31;;;;;;;8.00;2.30;;;;;;;9.13;60.15;100423.47;10347518;28;20346;-62
2021/10/22 19:55:33;;;;;;;6.35;2.10;;;;;;;9.14;60.44;100425.16;10377351;28;20065;-62
2021/10/22 20:00:36;;;;;;;8.07;2.17;;;;;;;9.13;60.64;100427.84;10346505;28;20050;-62
2021/10/22 20:05:38;;;;;;;5.47;1.80;;;;;;;8.95;60.85;100436.50;10346164;28;20505;-62
2021/10/22 20:10:40;;;;;;;7.03;2.15;;;;;;;8.91;61.62;100448.84;10345976;28;20081;-62
2021/10/22 20:15:42;;;;;;;6.30;2.20;;;;;;;8.97;61.79;100461.63;10345417;28;20084;-62
2021/10/22 20:20:44;;;;;;;7.57;2.40;;;;;;;8.83;62.46;100451.75;10345667;28;20403;-62
2021/10/22 20:25:46;;;;;;;4.63;2.17;;;;;;;8.75;62.84;100464.31;10345234;28;20486;-62
2021/10/22 20:30:48;;;;;;;8.20;2.60;;;;;;;8.80;62.73;100482.38;10345360;28;20815;-62
2021/10/22 20:35:50;;;;;;;6.65;2.25;;;;;;;8.62;63.66;100470.13;10344112;28;20490;-62
2021/10/22 20:40:52;;;;;;;10.75;2.65;;;;;;;8.60;63.94;100482.38;10344958;28;20053;-62
2021/10/22 20:45:57;;;;;;;7.25;2.20;;;;;;;8.59;64.06;100488.50;10345107;28;20054;-62
2021/10/22 21:01:08;;;;;;;7.15;2.00;;;;;;;8.50;64.64;100525.41;10344640;28;20425;-62
2021/10/22 21:06:10;;;;;;;5.60;2.28;;;;;;;8.40;65.17;100527.53;10342959;28;20108;-62
2021/10/22 21:11:12;;;;;;;6.32;2.00;;;;;;;8.37;65.42;100532.00;10344721;28;20577;-62
2021/10/22 21:16:14;;;;;;;7.60;2.25;;;;;;;8.45;65.13;100529.94;10343902;28;20076;-62
2021/10/22 21:21:16;;;;;;;9.00;2.15;;;;;;;8.54;64.92;100540.00;10344670;28;20054;-62
2021/10/22 21:26:21;;;;;;;7.32;2.10;;;;;;;8.51;65.15;100545.31;10342467;28;20695;-62
2021/10/22 21:31:23;;;;;;;5.95;2.15;;;;;;;8.45;65.49;100551.66;10344120;28;20132;-62
2021/10/22 21:36:25;;;;;;;5.88;2.00;;;;;;;8.54;65.36;100547.81;10343820;28;20081;-62
2021/10/22 21:41:28;;;;;;;8.05;2.17;;;;;;;8.53;65.48;100549.56;10347533;28;20417;-62
2021/10/22 21:46:30;;;;;;;6.80;2.15;;;;;;;8.47;65.63;100560.25;10351360;28;20060;-62
2021/10/22 21:51:32;;;;;;;5.68;1.90;;;;;;;8.52;65.43;100573.97;10351341;28;20650;-62
2021/10/22 21:56:34;;;;;;;9.63;2.85;;;;;;;8.48;65.63;100589.78;10351033;28;20064;-61
2021/10/22 22:01:36;;;;;;;4.75;2.25;;;;;;;8.37;65.88;100594.56;10350875;28;20217;-62
2021/10/22 22:06:37;;;;;;;6.68;2.28;;;;;;;8.33;65.96;100588.63;10350444;28;20413;-62
2021/10/22 22:11:39;;;;;;;7.70;2.42;;;;;;;8.30;66.38;100588.78;10350293;28;20060;-62
2021/10/22 22:16:41;;;;;;;6.13;2.45;;;;;;;8.32;66.09;100601.72;10349373;28;20693;-61
2021/10/22 22:21:43;;;;;;;7.93;2.75;;;;;;;8.25;66.30;100600.28;10349562;28;20065;-61
2021/10/22 22:26:45;;;;;;;7.20;2.60;;;;;;;8.24;66.16;100603.81;10349321;28;20083;-61
2021/10/22 22:31:47;;;;;;;8.93;2.97;;;;;;;8.16;66.67;100611.88;10379595;28;20050;-61
2021/10/22 22:36:49;;;;;;;5.80;3.00;;;;;;;8.19;66.83;100616.16;10346716;28;20045;-62
2021/10/22 22:41:51;;;;;;;8.02;2.90;;;;;;;8.18;67.05;100623.09;10348154;28;20061;-62
2021/10/22 22:46:52;;;;;;;7.05;2.90;;;;;;;8.18;66.88;100627.50;10346846;28;20056;-61
2021/10/22 22:51:54;;;;;;;6.55;3.05;;;;;;;8.11;67.05;100634.69;10342462;28;20461;-61
2021/10/22 22:56:56;;;;;;;9.57;3.10;;;;;;;8.02;67.36;100638.44;10346300;28;20140;-61
2021/10/22 23:01:58;;;;;;;7.97;3.00;;;;;;;8.03;67.32;100637.56;10347281;28;20058;-61
2021/10/22 23:07:00;;;;;;;7.20;2.90;;;;;;;8.01;67.33;100641.13;10344520;28;20065;-61
2021/10/22 23:12:04;;;;;;;10.95;3.20;;;;;;;7.92;67.64;100646.66;10346314;28;20050;-61
2021/10/22 23:17:06;;;;;;;7.75;2.78;;;;;;;7.85;67.65;100653.84;10346287;28;20502;-61
2021/10/22 23:22:08;;;;;;;9.57;3.05;;;;;;;7.82;68.02;100661.78;10344149;28;20140;-61
2021/10/22 23:27:09;;;;;;;10.10;3.10;;;;;;;7.81;68.10;100662.69;10345947;28;20136;-61
2021/10/22 23:32:13;;;;;;;9.18;3.20;;;;;;;7.90;68.03;100669.31;10343924;28;20042;-61
2021/10/22 23:37:14;;;;;;;6.78;2.90;;;;;;;7.87;68.29;100661.63;10345615;28;20478;-61
2021/10/22 23:42:16;;;;;;;10.20;3.20;;;;;;;7.91;68.13;100671.88;10345603;28;20041;-61
2021/10/22 23:47:18;;;;;;;9.25;3.25;;;;;;;7.92;67.98;100672.72;10344486;28;20066;-61
2021/10/22 23:52:19;;;;;;;8.65;3.28;;;;;;;7.69;68.35;100678.75;10344886;28;20052;-61
2021/10/22 23:57:21;;;;;;;8.15;3.22;;;;;;;7.58;68.35;100680.91;10344953;28;20588;-61
